createdAt,value
2019-06-08T00:00:31.470Z,1.00
2019-06-08T00:03:04.567Z,1.72
2019-06-08T00:05:37.653Z,1.42
2019-06-08T00:08:10.845Z,1.15
2019-06-08T00:10:44.045Z,1.20
2019-06-08T00:13:17.133Z,1.72
2019-06-08T00:15:51.144Z,1.10
2019-06-08T00:18:24.232Z,1.32
2019-06-08T00:20:58.146Z,1.32
2019-06-08T00:23:31.338Z,1.60
2019-06-08T00:26:04.428Z,1.40
2019-06-08T00:28:37.519Z,1.45
2019-06-08T00:31:10.715Z,1.10
2019-06-08T00:33:43.814Z,1.40
2019-06-08T00:36:17.019Z,1.30
2019-06-08T00:38:50.194Z,1.37
2019-06-08T00:41:23.697Z,1.12
2019-06-08T00:43:56.792Z,1.22
2019-06-08T00:46:29.979Z,1.82
2019-06-08T00:49:03.069Z,1.20
2019-06-08T00:51:36.059Z,1.45
2019-06-08T00:54:09.254Z,1.35
2019-06-08T00:56:42.346Z,1.70
2019-06-08T00:59:17.903Z,1.12
2019-06-08T01:01:50.879Z,1.20
2019-06-08T01:04:24.815Z,1.20
2019-06-08T01:06:57.879Z,1.37
2019-06-08T01:09:31.209Z,1.15
2019-06-08T01:12:04.267Z,1.37
2019-06-08T01:14:37.319Z,1.07
2019-06-08T01:17:10.347Z,1.02
2019-06-08T01:19:43.574Z,1.60
2019-06-08T01:22:16.734Z,1.82
2019-06-08T01:24:49.931Z,1.57
2019-06-08T01:27:23.923Z,1.90
2019-06-08T01:29:56.929Z,2.00
2019-06-08T01:32:30.621Z,1.35
2019-06-08T01:35:03.728Z,1.72
2019-06-08T01:37:36.922Z,1.60
2019-06-08T01:40:10.014Z,1.65
2019-06-08T01:42:42.998Z,1.42
2019-06-08T01:45:17.731Z,1.55
2019-06-08T01:47:50.818Z,1.95
2019-06-08T01:50:24.364Z,1.95
2019-06-08T01:52:57.617Z,1.60
2019-06-08T01:55:31.202Z,2.42
2019-06-08T01:58:04.212Z,1.90
2019-06-08T02:00:41.089Z,1.62
2019-06-08T02:03:11.926Z,1.50
2019-06-08T02:05:45.120Z,2.58
2019-06-08T02:08:18.314Z,2.22
2019-06-08T02:10:51.511Z,1.75
2019-06-08T02:13:24.977Z,2.00
2019-06-08T02:15:57.895Z,1.70
2019-06-08T02:18:41.791Z,1.50
2019-06-08T02:21:05.616Z,1.70
2019-06-08T02:23:39.685Z,1.42
2019-06-08T02:26:12.816Z,1.25
2019-06-08T02:28:46.010Z,1.25
2019-06-08T02:31:19.107Z,1.65
2019-06-08T02:33:52.500Z,1.57
2019-06-08T02:36:25.488Z,1.57
2019-06-08T02:38:58.683Z,1.75
2019-06-08T02:41:33.071Z,2.08
2019-06-08T02:44:07.325Z,1.45
2019-06-08T02:46:40.738Z,1.30
2019-06-08T02:49:13.914Z,1.57
2019-06-08T02:51:47.114Z,1.55
2019-06-08T02:54:20.200Z,1.75
2019-06-08T02:56:54.331Z,1.80
2019-06-08T02:59:29.323Z,1.62
2019-06-08T03:04:41.118Z,2.15
2019-06-08T03:07:13.635Z,1.57
2019-06-08T03:09:46.828Z,1.57
2019-06-08T03:12:20.644Z,2.40
2019-06-08T03:14:54.246Z,1.80
2019-06-08T03:17:27.127Z,1.92
2019-06-08T03:20:00.522Z,2.00
2019-06-08T03:22:34.329Z,1.95
2019-06-08T03:25:08.246Z,1.77
2019-06-08T03:27:43.234Z,1.50
2019-06-08T03:30:19.057Z,2.02
2019-06-08T03:32:56.251Z,1.67
2019-06-08T03:35:25.418Z,1.75
2019-06-08T03:37:58.407Z,1.90
2019-06-08T03:40:31.605Z,2.08
2019-06-08T03:43:05.922Z,2.10
2019-06-08T03:45:40.663Z,2.08
2019-06-08T03:48:13.641Z,2.02
2019-06-08T03:50:46.641Z,1.90
2019-06-08T03:53:19.828Z,2.12
2019-06-08T03:55:53.729Z,2.00
2019-06-08T03:58:26.928Z,1.67
2019-06-08T04:01:00.135Z,1.90
2019-06-08T04:03:33.005Z,1.95
2019-06-08T04:06:06.412Z,1.95
2019-06-08T04:08:40.895Z,1.60
2019-06-08T04:11:14.123Z,1.75
2019-06-08T04:13:47.456Z,1.87
2019-06-08T04:16:22.555Z,1.80
2019-06-08T04:18:55.446Z,1.80
2019-06-08T04:21:28.530Z,1.60
2019-06-08T04:24:01.626Z,1.55
2019-06-08T04:26:34.820Z,1.42
2019-06-08T04:29:07.910Z,1.70
2019-06-08T04:31:41.886Z,1.87
2019-06-08T04:34:14.807Z,1.55
2019-06-08T04:36:49.975Z,1.47
2019-06-08T04:39:22.525Z,1.42
2019-06-08T04:41:55.722Z,1.30
2019-06-08T04:44:28.704Z,1.30
2019-06-08T04:47:01.909Z,1.30
2019-06-08T04:49:35.197Z,1.72
2019-06-08T04:52:08.185Z,1.75
2019-06-08T04:54:42.512Z,1.92
2019-06-08T04:57:15.696Z,2.00
2019-06-08T04:59:50.395Z,1.70
2019-06-08T05:02:23.516Z,2.08
2019-06-08T05:04:56.608Z,1.80
2019-06-08T05:07:29.809Z,2.20
2019-06-08T05:10:02.894Z,1.72
2019-06-08T05:12:36.094Z,1.72
2019-06-08T05:15:09.282Z,1.87
2019-06-08T05:17:43.223Z,2.22
2019-06-08T05:20:16.389Z,1.47
2019-06-08T05:22:49.837Z,2.15
2019-06-08T05:25:23.091Z,2.05
2019-06-08T05:27:56.173Z,1.98
2019-06-08T05:30:29.158Z,1.65
2019-06-08T05:33:03.169Z,1.90
2019-06-08T05:35:36.363Z,2.20
2019-06-08T05:38:09.457Z,1.35
2019-06-08T05:40:43.586Z,2.12
2019-06-08T05:43:17.477Z,1.72
2019-06-08T05:45:51.596Z,1.67
2019-06-08T05:48:24.688Z,1.72
2019-06-08T05:51:03.965Z,2.10
2019-06-08T05:56:04.883Z,1.47
2019-06-08T05:58:37.873Z,1.25
2019-06-08T06:01:11.065Z,1.72
2019-06-08T06:03:44.551Z,1.52
2019-06-08T06:06:17.758Z,1.30
2019-06-08T06:08:51.112Z,1.32
2019-06-08T06:11:24.043Z,1.20
2019-06-08T06:13:57.240Z,1.60
2019-06-08T06:16:30.432Z,1.40
2019-06-08T06:19:03.634Z,1.10
2019-06-08T06:21:36.816Z,1.30
2019-06-08T06:24:10.010Z,1.35
2019-06-08T06:26:43.273Z,1.25
2019-06-08T06:29:16.498Z,1.47
2019-06-08T06:31:49.753Z,1.10
2019-06-08T06:34:22.992Z,1.00
2019-06-08T06:36:57.465Z,1.00
2019-06-08T06:39:30.502Z,0.90
2019-06-08T06:42:03.669Z,0.80
2019-06-08T06:44:36.891Z,0.78
2019-06-08T06:47:10.086Z,0.98
2019-06-08T06:49:44.513Z,1.07
2019-06-08T06:52:17.493Z,0.72
2019-06-08T06:54:51.269Z,0.85
2019-06-08T06:57:24.192Z,1.00
2019-06-08T06:59:57.281Z,0.90
2019-06-08T07:02:30.370Z,0.90
2019-06-08T07:05:03.474Z,1.02
2019-06-08T07:07:36.456Z,1.07
2019-06-08T07:10:09.546Z,1.00
2019-06-08T07:12:42.787Z,1.10
2019-06-08T07:15:18.999Z,0.78
2019-06-08T07:17:53.572Z,0.85
2019-06-08T07:20:26.718Z,1.07
2019-06-08T07:22:59.706Z,0.90
2019-06-08T07:25:33.001Z,1.15
2019-06-08T07:28:06.012Z,1.00
2019-06-08T07:30:39.186Z,0.80
2019-06-08T07:33:12.175Z,0.98
2019-06-08T07:35:46.843Z,1.07
2019-06-08T07:38:20.812Z,0.90
2019-06-08T07:40:57.893Z,1.10
2019-06-08T07:46:01.009Z,0.88
2019-06-08T07:48:35.122Z,1.10
2019-06-08T07:51:08.322Z,1.52
2019-06-08T07:53:41.509Z,1.20
2019-06-08T07:56:14.496Z,0.72
2019-06-08T07:58:49.549Z,1.25
2019-06-08T08:01:35.234Z,1.00
2019-06-08T08:03:58.344Z,1.10
2019-06-08T08:06:31.366Z,1.05
2019-06-08T08:09:06.821Z,1.17
2019-06-08T08:11:40.012Z,1.45
2019-06-08T08:14:13.095Z,1.15
2019-06-08T08:16:46.091Z,0.82
2019-06-08T08:19:19.174Z,1.00
2019-06-08T08:21:54.553Z,1.20
2019-06-08T08:24:27.242Z,1.55
2019-06-08T08:27:03.518Z,0.95
2019-06-08T08:29:34.711Z,0.90
2019-06-08T08:32:09.924Z,1.15
2019-06-08T08:34:42.327Z,0.98
2019-06-08T08:37:17.527Z,1.05
2019-06-08T08:39:50.585Z,1.37
2019-06-08T08:42:24.567Z,0.98
2019-06-08T08:45:02.668Z,1.30
2019-06-08T08:47:32.388Z,1.20
2019-06-08T08:50:07.548Z,0.90
2019-06-08T08:52:41.126Z,0.90
2019-06-08T08:55:14.117Z,0.85
2019-06-08T08:57:48.435Z,1.17
2019-06-08T09:00:22.450Z,0.90
2019-06-08T09:03:13.153Z,1.25
2019-06-08T09:05:30.064Z,0.93
2019-06-08T09:08:04.073Z,1.10
2019-06-08T09:10:38.262Z,0.93
2019-06-08T09:13:12.081Z,1.00
2019-06-08T09:15:47.830Z,0.90
2019-06-08T09:18:20.024Z,0.80
2019-06-08T09:20:53.990Z,0.80
2019-06-08T09:23:28.050Z,1.10
2019-06-08T09:26:07.685Z,1.05
2019-06-08T09:28:35.664Z,1.35
2019-06-08T09:31:12.642Z,1.00
2019-06-08T09:33:53.318Z,1.80
2019-06-08T09:36:17.902Z,1.42
2019-06-08T09:38:53.232Z,1.05
2019-06-08T09:44:00.519Z,1.32
2019-06-08T09:46:32.624Z,1.00
2019-06-08T09:49:09.346Z,1.52
2019-06-08T09:51:40.656Z,0.60
2019-06-08T09:54:14.050Z,1.00
2019-06-08T09:56:47.835Z,1.00
2019-06-08T09:59:20.896Z,0.70
2019-06-08T10:01:55.099Z,1.22
2019-06-08T10:04:29.194Z,0.93
2019-06-08T10:07:04.268Z,1.32
2019-06-08T10:09:38.114Z,0.75
2019-06-08T10:12:11.317Z,1.20
2019-06-08T10:14:44.406Z,1.00
2019-06-08T10:17:20.572Z,0.72
2019-06-08T10:22:24.498Z,0.70
2019-06-08T10:25:02.180Z,0.72
2019-06-08T10:27:32.436Z,1.00
2019-06-08T10:30:10.098Z,0.80
2019-06-08T10:32:43.106Z,0.90
2019-06-08T10:35:20.651Z,0.47
2019-06-08T10:37:53.275Z,0.60
2019-06-08T10:40:25.653Z,0.45
2019-06-08T10:43:01.408Z,0.78
2019-06-08T10:48:06.405Z,0.50
2019-06-08T10:50:40.480Z,0.70
2019-06-08T10:53:16.499Z,0.57
2019-06-08T10:58:21.403Z,0.60
2019-06-08T11:00:54.274Z,0.70
2019-06-08T11:03:30.405Z,0.62
2019-06-08T11:06:03.293Z,0.53
2019-06-08T11:08:39.054Z,0.65
2019-06-08T11:11:12.144Z,0.80
2019-06-08T11:13:45.152Z,0.78
2019-06-08T11:16:18.465Z,0.68
2019-06-08T11:18:51.748Z,1.10
2019-06-08T11:21:25.045Z,0.70
2019-06-08T11:24:07.529Z,0.85
2019-06-08T11:26:33.079Z,0.70
2019-06-08T11:29:09.628Z,0.75
2019-06-08T11:31:40.885Z,0.90
2019-06-08T11:34:14.079Z,0.78
2019-06-08T11:36:48.409Z,0.95
2019-06-08T11:39:21.915Z,1.00
2019-06-08T11:41:54.986Z,0.62
2019-06-08T11:44:28.185Z,0.72
2019-06-08T11:47:02.503Z,0.70
2019-06-08T11:49:35.592Z,0.60
2019-06-08T11:52:09.169Z,0.90
2019-06-08T11:54:42.600Z,0.90
2019-06-08T11:57:17.654Z,0.80
2019-06-08T11:59:50.720Z,0.60
2019-06-08T12:02:23.618Z,0.70
2019-06-08T12:04:57.241Z,0.70
2019-06-08T12:07:30.429Z,0.60
2019-06-08T12:10:04.571Z,0.60
2019-06-08T12:12:38.507Z,0.80
2019-06-08T12:15:13.704Z,0.93
2019-06-08T12:20:24.322Z,0.72
2019-06-08T12:25:27.569Z,0.90
2019-06-08T12:28:00.766Z,1.37
2019-06-08T12:30:33.751Z,0.70
2019-06-08T12:33:09.386Z,1.20
2019-06-08T12:35:41.674Z,0.78
2019-06-08T12:38:16.507Z,0.70
2019-06-08T12:43:21.765Z,0.98
2019-06-08T12:45:54.856Z,0.70
2019-06-08T12:48:28.730Z,0.80
2019-06-08T12:51:01.862Z,0.80
2019-06-08T12:53:35.050Z,0.78
2019-06-08T12:56:10.119Z,0.70
2019-06-08T13:01:15.143Z,0.80
2019-06-08T13:03:48.562Z,0.62
2019-06-08T13:06:21.634Z,0.90
2019-06-08T13:08:54.627Z,1.25
2019-06-08T13:11:28.286Z,0.98
2019-06-08T13:14:01.419Z,0.77
2019-06-08T13:16:34.525Z,0.70
2019-06-08T13:19:09.261Z,0.60
2019-06-08T13:21:43.357Z,0.33
2019-06-08T13:24:17.279Z,0.80
2019-06-08T13:26:50.773Z,0.80
2019-06-08T13:29:24.060Z,0.60
2019-06-08T13:31:59.039Z,0.88
2019-06-08T13:37:03.954Z,0.70
2019-06-08T13:39:38.796Z,0.60
2019-06-08T13:42:13.110Z,0.80
2019-06-08T13:44:47.481Z,0.80
2019-06-08T13:47:21.835Z,0.90
2019-06-08T13:52:28.140Z,0.60
2019-06-08T13:55:01.319Z,0.60
2019-06-08T13:57:34.512Z,0.90
2019-06-08T14:00:08.876Z,0.50
2019-06-08T14:02:41.718Z,0.70
2019-06-08T14:05:21.114Z,0.50
2019-06-08T14:07:51.172Z,0.70
2019-06-08T14:10:38.558Z,0.80
2019-06-08T14:13:10.873Z,0.75
2019-06-08T14:15:43.954Z,0.80
2019-06-08T14:18:21.313Z,0.62
2019-06-08T14:20:54.537Z,0.68
2019-06-08T14:26:00.375Z,0.53
2019-06-08T14:28:33.301Z,0.70
2019-06-08T14:31:08.288Z,0.72
2019-06-08T14:33:41.427Z,0.68
2019-06-08T14:36:14.519Z,0.65
2019-06-08T14:38:49.440Z,0.78
2019-06-08T14:41:22.831Z,0.53
2019-06-08T14:43:58.468Z,0.80
2019-06-08T14:49:03.362Z,0.80
2019-06-08T14:51:49.971Z,0.60
2019-06-08T14:54:28.124Z,0.78
2019-06-08T14:56:58.587Z,0.78
2019-06-08T14:59:31.907Z,0.80
2019-06-08T15:02:04.878Z,0.90
2019-06-08T15:04:39.970Z,0.75
2019-06-08T15:07:12.693Z,1.32
2019-06-08T15:09:47.990Z,1.00
2019-06-08T15:12:21.452Z,0.80
2019-06-08T15:14:54.627Z,1.20
2019-06-08T15:17:28.987Z,1.12
2019-06-08T15:20:05.213Z,1.22
2019-06-08T15:22:38.895Z,1.30
2019-06-08T15:25:12.620Z,1.10
2019-06-08T15:27:47.812Z,1.77
2019-06-08T15:30:21.244Z,1.40
2019-06-08T15:32:54.458Z,1.60
2019-06-08T15:35:29.479Z,1.50
2019-06-08T15:38:02.478Z,1.10
2019-06-08T15:40:37.758Z,1.27
2019-06-08T15:43:10.505Z,1.10
2019-06-08T15:45:43.592Z,1.60
2019-06-08T15:48:20.197Z,1.52
2019-06-08T15:53:24.363Z,2.50
2019-06-08T15:55:58.398Z,3.80
2019-06-08T15:58:32.780Z,12.95
2019-06-08T16:01:06.543Z,9.63
2019-06-08T16:03:39.940Z,2.80
2019-06-08T16:06:13.137Z,1.87
2019-06-08T16:08:46.636Z,1.20
2019-06-08T16:11:19.523Z,1.35
2019-06-08T16:13:52.612Z,1.10
2019-06-08T16:16:27.039Z,0.90
2019-06-08T16:19:00.024Z,1.70
2019-06-08T16:21:34.296Z,0.98
2019-06-08T16:24:07.227Z,1.27
2019-06-08T16:26:52.188Z,1.22
2019-06-08T16:29:14.844Z,1.15
2019-06-08T16:31:47.938Z,1.15
2019-06-08T16:34:21.027Z,1.47
2019-06-08T16:36:54.223Z,1.02
2019-06-08T16:39:28.565Z,0.98
2019-06-08T16:42:02.047Z,1.20
2019-06-08T16:47:09.247Z,1.50
2019-06-08T16:49:42.443Z,1.10
2019-06-08T16:52:17.290Z,1.20
2019-06-08T16:54:50.367Z,0.93
2019-06-08T16:57:23.659Z,1.10
2019-06-08T16:59:56.647Z,1.82
2019-06-08T17:02:30.794Z,1.35
2019-06-08T17:05:04.879Z,1.17
2019-06-08T17:07:37.894Z,1.87
2019-06-08T17:10:10.932Z,1.30
2019-06-08T17:12:43.945Z,1.22
2019-06-08T17:15:17.136Z,1.15
2019-06-08T17:17:50.023Z,1.32
2019-06-08T17:20:23.119Z,1.42
2019-06-08T17:22:56.206Z,1.20
2019-06-08T17:25:30.367Z,2.70
2019-06-08T17:28:03.618Z,1.65
2019-06-08T17:30:37.631Z,1.40
2019-06-08T17:33:10.621Z,1.70
2019-06-08T17:35:43.712Z,1.80
2019-06-08T17:38:16.807Z,1.62
2019-06-08T17:40:49.894Z,1.75
2019-06-08T17:43:23.088Z,1.80
2019-06-08T17:45:56.278Z,1.98
2019-06-08T17:48:29.473Z,1.42
2019-06-08T17:51:02.462Z,1.67
2019-06-08T17:53:36.897Z,2.08
2019-06-08T17:56:10.999Z,2.08
2019-06-08T18:01:17.082Z,1.65
2019-06-08T18:03:50.273Z,1.92
2019-06-08T18:06:23.535Z,1.60
2019-06-08T18:08:58.609Z,1.80
2019-06-08T18:11:31.490Z,2.15
2019-06-08T18:14:04.684Z,1.87
2019-06-08T18:16:40.897Z,2.05
2019-06-08T18:19:21.409Z,2.12
2019-06-08T18:22:02.741Z,1.90
2019-06-08T18:27:02.832Z,2.10
2019-06-08T18:29:39.142Z,2.20
2019-06-08T18:32:10.755Z,2.12
2019-06-08T18:34:44.904Z,2.30
2019-06-08T18:37:18.200Z,2.70
2019-06-08T18:39:51.048Z,2.70
2019-06-08T18:42:24.039Z,3.15
2019-06-08T18:44:58.269Z,2.50
2019-06-08T18:47:31.349Z,3.00
2019-06-08T18:50:08.920Z,2.85
2019-06-08T18:52:44.753Z,2.60
2019-06-08T18:55:18.379Z,2.40
2019-06-08T18:57:51.284Z,2.67
2019-06-08T19:00:30.444Z,2.70
2019-06-08T19:03:03.985Z,3.05
2019-06-08T19:05:40.251Z,2.33
2019-06-08T19:08:12.247Z,2.67
2019-06-08T19:10:48.241Z,3.22
2019-06-08T19:13:21.199Z,2.45
2019-06-08T19:15:54.355Z,2.30
2019-06-08T19:18:29.282Z,2.22
2019-06-08T19:21:02.308Z,1.87
2019-06-08T19:23:37.470Z,2.05
2019-06-08T19:26:09.718Z,2.02
2019-06-08T19:28:47.635Z,2.10
2019-06-08T19:31:17.669Z,2.00
2019-06-08T19:33:53.260Z,2.00
2019-06-08T19:36:27.827Z,2.62
2019-06-08T19:38:59.982Z,1.70
2019-06-08T19:41:33.074Z,1.85
2019-06-08T19:44:07.529Z,2.27
2019-06-08T19:46:40.792Z,1.90
2019-06-08T19:49:13.777Z,1.92
2019-06-08T19:51:49.378Z,1.77
2019-06-08T19:54:21.599Z,1.05
2019-06-08T19:56:57.409Z,1.32
2019-06-08T19:59:30.237Z,1.22
2019-06-08T20:02:03.332Z,1.35
2019-06-08T20:04:38.703Z,1.57
2019-06-08T20:07:11.356Z,1.10
2019-06-08T20:09:45.241Z,1.15
2019-06-08T20:12:19.070Z,1.55
2019-06-08T20:14:52.064Z,0.80
2019-06-08T20:17:28.172Z,1.02
2019-06-08T20:19:59.883Z,1.27
2019-06-08T20:22:33.280Z,0.90
2019-06-08T20:25:10.315Z,1.30
2019-06-08T20:27:41.713Z,1.20
2019-06-08T20:30:17.264Z,1.17
2019-06-08T20:32:52.231Z,1.15
2019-06-08T20:35:24.160Z,1.00
2019-06-08T20:37:57.912Z,0.90
2019-06-08T20:40:30.955Z,1.05
2019-06-08T20:43:04.147Z,0.98
2019-06-08T20:45:37.591Z,1.00
2019-06-08T20:48:10.843Z,1.35
2019-06-08T20:50:44.351Z,1.15
2019-06-08T20:53:17.765Z,1.05
2019-06-08T20:55:52.344Z,1.37
2019-06-08T20:58:25.563Z,1.10
2019-06-08T21:00:58.758Z,0.90
2019-06-08T21:03:31.947Z,0.90
2019-06-08T21:06:05.044Z,1.15
2019-06-08T21:08:38.132Z,1.40
2019-06-08T21:11:11.325Z,0.98
2019-06-08T21:13:45.595Z,1.17
2019-06-08T21:16:19.040Z,1.32
2019-06-08T21:18:52.965Z,1.07
2019-06-08T21:21:28.138Z,1.12
2019-06-08T21:24:01.472Z,1.07
2019-06-08T21:26:34.783Z,1.17
2019-06-08T21:29:08.300Z,1.32
2019-06-08T21:31:41.377Z,1.35
2019-06-08T21:34:14.364Z,1.40
2019-06-08T21:36:49.858Z,1.30
2019-06-08T21:39:22.186Z,1.50
2019-06-08T21:42:00.981Z,1.60
2019-06-08T21:44:29.802Z,1.52
2019-06-08T21:47:02.991Z,1.75
2019-06-08T21:49:38.259Z,1.90
2019-06-08T21:52:10.815Z,2.65
2019-06-08T21:54:43.904Z,2.80
2019-06-08T21:57:18.506Z,2.42
2019-06-08T22:00:06.968Z,1.80
2019-06-08T22:02:26.249Z,1.80
2019-06-08T22:05:02.937Z,1.70
2019-06-08T22:07:33.963Z,1.37
2019-06-08T22:10:09.747Z,1.65
2019-06-08T22:12:42.707Z,1.22
2019-06-08T22:15:18.106Z,1.82
2019-06-08T22:17:51.505Z,1.80
2019-06-08T22:22:59.096Z,2.05
2019-06-08T22:25:33.340Z,2.40
2019-06-08T22:28:07.241Z,2.57
2019-06-08T22:30:43.085Z,2.37
2019-06-08T22:33:14.808Z,2.10
2019-06-08T22:35:47.999Z,2.62
2019-06-08T22:38:21.190Z,1.85
2019-06-08T22:40:55.247Z,2.12
2019-06-08T22:43:29.217Z,2.40
2019-06-08T22:46:03.508Z,2.22
2019-06-08T22:51:11.045Z,2.83
2019-06-08T22:53:44.140Z,2.98
2019-06-08T22:56:18.267Z,2.30
2019-06-08T22:58:51.447Z,1.82
2019-06-08T23:01:24.642Z,2.33
2019-06-08T23:04:00.878Z,2.02
2019-06-08T23:06:32.565Z,2.15
2019-06-08T23:09:08.722Z,2.05
2019-06-08T23:11:41.920Z,2.20
2019-06-08T23:14:15.011Z,2.40
2019-06-08T23:16:48.203Z,2.22
2019-06-08T23:19:21.400Z,2.67
2019-06-08T23:21:55.211Z,2.47
2019-06-08T23:24:28.295Z,2.60
2019-06-08T23:27:02.132Z,2.83
2019-06-08T23:29:35.195Z,2.77
2019-06-08T23:32:11.453Z,2.37
2019-06-08T23:34:42.920Z,2.62
2019-06-08T23:37:18.135Z,2.30
2019-06-08T23:39:50.834Z,2.52
2019-06-08T23:42:23.824Z,3.42
2019-06-08T23:44:58.010Z,2.80
2019-06-08T23:47:31.642Z,2.40
2019-06-08T23:50:10.035Z,2.77
2019-06-08T23:52:41.205Z,2.00
2019-06-08T23:55:14.397Z,2.22
2019-06-08T23:57:47.590Z,2.62
